sensor_id;sensor_type;location;lat;lon;timestamp;temperature;humidity
16503;DHT22;53067;48.114;11.694;2022-07-29T00:00:33;22.90;53.70
16503;DHT22;53067;48.114;11.694;2022-07-29T00:03:01;22.90;53.70
16503;DHT22;53067;48.114;11.694;2022-07-29T00:05:28;22.80;53.80
16503;DHT22;53067;48.114;11.694;2022-07-29T00:07:56;22.80;53.80
16503;DHT22;53067;48.114;11.694;2022-07-29T00:10:24;22.70;53.50
16503;DHT22;53067;48.114;11.694;2022-07-29T00:12:51;22.70;53.60
16503;DHT22;53067;48.114;11.694;2022-07-29T00:15:19;22.70;53.40
16503;DHT22;53067;48.114;11.694;2022-07-29T00:17:46;22.70;53.40
16503;DHT22;53067;48.114;11.694;2022-07-29T00:20:14;22.70;53.60
16503;DHT22;53067;48.114;11.694;2022-07-29T00:22:41;22.70;53.60
16503;DHT22;53067;48.114;11.694;2022-07-29T00:25:09;22.70;53.50
16503;DHT22;53067;48.114;11.694;2022-07-29T00:27:36;22.70;53.40
16503;DHT22;53067;48.114;11.694;2022-07-29T00:30:05;22.70;53.20
16503;DHT22;53067;48.114;11.694;2022-07-29T00:32:34;22.70;53.30
16503;DHT22;53067;48.114;11.694;2022-07-29T00:35:01;22.70;53.40
16503;DHT22;53067;48.114;11.694;2022-07-29T00:37:56;22.70;53.40
16503;DHT22;53067;48.114;11.694;2022-07-29T00:40:23;22.70;53.50
16503;DHT22;53067;48.114;11.694;2022-07-29T00:42:52;22.70;53.50
16503;DHT22;53067;48.114;11.694;2022-07-29T00:45:20;22.70;53.40
16503;DHT22;53067;48.114;11.694;2022-07-29T00:47:48;22.70;53.40
16503;DHT22;53067;48.114;11.694;2022-07-29T00:50:16;22.70;53.60
16503;DHT22;53067;48.114;11.694;2022-07-29T00:52:45;22.70;53.70
16503;DHT22;53067;48.114;11.694;2022-07-29T00:55:14;22.70;53.80
16503;DHT22;53067;48.114;11.694;2022-07-29T00:57:44;22.60;54.00
16503;DHT22;53067;48.114;11.694;2022-07-29T01:00:19;22.60;54.10
16503;DHT22;53067;48.114;11.694;2022-07-29T01:02:44;22.70;54.20
16503;DHT22;53067;48.114;11.694;2022-07-29T01:05:13;22.70;54.30
16503;DHT22;53067;48.114;11.694;2022-07-29T01:07:42;22.70;55.00
16503;DHT22;53067;48.114;11.694;2022-07-29T01:10:11;22.60;54.30
16503;DHT22;53067;48.114;11.694;2022-07-29T01:12:40;22.70;54.40
16503;DHT22;53067;48.114;11.694;2022-07-29T01:15:08;22.70;54.30
16503;DHT22;53067;48.114;11.694;2022-07-29T01:29:06;22.60;54.30
16503;DHT22;53067;48.114;11.694;2022-07-29T01:31:59;22.70;54.40
16503;DHT22;53067;48.114;11.694;2022-07-29T01:34:29;22.70;55.00
16503;DHT22;53067;48.114;11.694;2022-07-29T01:39:45;22.70;54.60
16503;DHT22;53067;48.114;11.694;2022-07-29T01:48:05;22.70;54.60
16503;DHT22;53067;48.114;11.694;2022-07-29T01:50:44;22.70;54.80
16503;DHT22;53067;48.114;11.694;2022-07-29T01:53:30;22.70;54.90
16503;DHT22;53067;48.114;11.694;2022-07-29T01:56:00;22.70;55.00
16503;DHT22;53067;48.114;11.694;2022-07-29T01:58:31;22.60;55.60
16503;DHT22;53067;48.114;11.694;2022-07-29T02:01:00;22.70;55.10
16503;DHT22;53067;48.114;11.694;2022-07-29T02:03:30;22.70;55.10
16503;DHT22;53067;48.114;11.694;2022-07-29T02:06:00;22.70;55.00
16503;DHT22;53067;48.114;11.694;2022-07-29T02:08:29;22.70;55.00
16503;DHT22;53067;48.114;11.694;2022-07-29T02:10:59;22.70;55.00
16503;DHT22;53067;48.114;11.694;2022-07-29T02:13:29;22.70;54.90
16503;DHT22;53067;48.114;11.694;2022-07-29T02:15:58;22.70;55.00
16503;DHT22;53067;48.114;11.694;2022-07-29T02:18:28;22.70;55.00
16503;DHT22;53067;48.114;11.694;2022-07-29T02:20:59;22.70;55.60
16503;DHT22;53067;48.114;11.694;2022-07-29T02:26:16;22.70;55.10
16503;DHT22;53067;48.114;11.694;2022-07-29T02:28:45;22.60;55.40
16503;DHT22;53067;48.114;11.694;2022-07-29T02:31:14;22.60;55.60
16503;DHT22;53067;48.114;11.694;2022-07-29T02:33:42;22.60;55.60
16503;DHT22;53067;48.114;11.694;2022-07-29T02:36:10;22.60;55.60
16503;DHT22;53067;48.114;11.694;2022-07-29T02:38:39;22.60;55.60
16503;DHT22;53067;48.114;11.694;2022-07-29T02:41:30;22.50;55.70
16503;DHT22;53067;48.114;11.694;2022-07-29T02:44:20;22.50;55.90
16503;DHT22;53067;48.114;11.694;2022-07-29T02:46:35;22.50;56.00
16503;DHT22;53067;48.114;11.694;2022-07-29T02:52:07;22.50;56.00
16503;DHT22;53067;48.114;11.694;2022-07-29T02:54:58;22.40;55.90
16503;DHT22;53067;48.114;11.694;2022-07-29T02:59:59;22.40;56.10
16503;DHT22;53067;48.114;11.694;2022-07-29T03:02:33;22.40;56.40
16503;DHT22;53067;48.114;11.694;2022-07-29T03:05:01;22.30;56.50
16503;DHT22;53067;48.114;11.694;2022-07-29T03:07:30;22.30;56.50
16503;DHT22;53067;48.114;11.694;2022-07-29T03:09:59;22.30;56.70
16503;DHT22;53067;48.114;11.694;2022-07-29T03:12:27;22.30;56.50
16503;DHT22;53067;48.114;11.694;2022-07-29T03:14:56;22.30;56.50
16503;DHT22;53067;48.114;11.694;2022-07-29T03:17:25;22.30;56.60
16503;DHT22;53067;48.114;11.694;2022-07-29T03:19:52;22.30;56.70
16503;DHT22;53067;48.114;11.694;2022-07-29T03:22:20;22.30;56.70
16503;DHT22;53067;48.114;11.694;2022-07-29T03:24:48;22.20;56.80
16503;DHT22;53067;48.114;11.694;2022-07-29T03:27:16;22.20;57.40
16503;DHT22;53067;48.114;11.694;2022-07-29T03:29:43;22.20;57.00
16503;DHT22;53067;48.114;11.694;2022-07-29T03:32:11;22.10;57.00
16503;DHT22;53067;48.114;11.694;2022-07-29T03:34:38;22.10;57.20
16503;DHT22;53067;48.114;11.694;2022-07-29T03:37:06;22.10;57.50
16503;DHT22;53067;48.114;11.694;2022-07-29T03:39:36;22.00;57.60
16503;DHT22;53067;48.114;11.694;2022-07-29T03:42:05;22.00;57.70
16503;DHT22;53067;48.114;11.694;2022-07-29T03:44:36;21.90;57.70
16503;DHT22;53067;48.114;11.694;2022-07-29T03:47:06;21.90;57.90
16503;DHT22;53067;48.114;11.694;2022-07-29T03:49:36;21.80;57.90
16503;DHT22;53067;48.114;11.694;2022-07-29T03:52:05;21.80;58.00
16503;DHT22;53067;48.114;11.694;2022-07-29T03:54:33;21.80;58.10
16503;DHT22;53067;48.114;11.694;2022-07-29T03:57:20;21.80;58.80
16503;DHT22;53067;48.114;11.694;2022-07-29T03:59:50;21.70;58.20
16503;DHT22;53067;48.114;11.694;2022-07-29T04:05:11;21.60;58.60
16503;DHT22;53067;48.114;11.694;2022-07-29T04:07:40;21.60;58.80
16503;DHT22;53067;48.114;11.694;2022-07-29T04:12:56;21.50;58.80
16503;DHT22;53067;48.114;11.694;2022-07-29T04:15:23;21.50;59.50
16503;DHT22;53067;48.114;11.694;2022-07-29T04:17:51;21.50;58.90
16503;DHT22;53067;48.114;11.694;2022-07-29T04:20:18;21.50;59.00
16503;DHT22;53067;48.114;11.694;2022-07-29T04:22:46;21.50;58.90
16503;DHT22;53067;48.114;11.694;2022-07-29T04:25:13;21.40;58.90
16503;DHT22;53067;48.114;11.694;2022-07-29T04:27:41;21.40;59.30
16503;DHT22;53067;48.114;11.694;2022-07-29T04:30:10;21.40;59.30
16503;DHT22;53067;48.114;11.694;2022-07-29T04:32:38;21.40;59.40
16503;DHT22;53067;48.114;11.694;2022-07-29T04:35:07;21.40;59.50
16503;DHT22;53067;48.114;11.694;2022-07-29T04:37:34;21.40;59.50
16503;DHT22;53067;48.114;11.694;2022-07-29T04:40:02;21.40;59.50
16503;DHT22;53067;48.114;11.694;2022-07-29T04:42:30;21.30;59.50
16503;DHT22;53067;48.114;11.694;2022-07-29T04:44:57;21.40;59.80
16503;DHT22;53067;48.114;11.694;2022-07-29T04:47:25;21.30;59.90
16503;DHT22;53067;48.114;11.694;2022-07-29T04:49:52;21.30;60.20
16503;DHT22;53067;48.114;11.694;2022-07-29T04:52:20;21.40;60.10
16503;DHT22;53067;48.114;11.694;2022-07-29T04:54:49;21.40;60.00
16503;DHT22;53067;48.114;11.694;2022-07-29T04:57:17;21.50;60.20
16503;DHT22;53067;48.114;11.694;2022-07-29T04:59:44;21.50;60.00
16503;DHT22;53067;48.114;11.694;2022-07-29T05:02:12;21.50;59.90
16503;DHT22;53067;48.114;11.694;2022-07-29T05:04:41;21.60;59.90
16503;DHT22;53067;48.114;11.694;2022-07-29T05:07:08;21.70;59.60
16503;DHT22;53067;48.114;11.694;2022-07-29T05:09:36;21.80;59.60
16503;DHT22;53067;48.114;11.694;2022-07-29T05:12:04;21.90;59.30
16503;DHT22;53067;48.114;11.694;2022-07-29T05:14:31;22.00;59.10
16503;DHT22;53067;48.114;11.694;2022-07-29T05:16:59;22.00;58.90
16503;DHT22;53067;48.114;11.694;2022-07-29T05:19:27;22.10;58.90
16503;DHT22;53067;48.114;11.694;2022-07-29T05:21:54;22.20;58.70
16503;DHT22;53067;48.114;11.694;2022-07-29T05:24:22;22.30;58.20
16503;DHT22;53067;48.114;11.694;2022-07-29T05:26:49;22.30;58.20
16503;DHT22;53067;48.114;11.694;2022-07-29T05:29:17;22.40;58.20
16503;DHT22;53067;48.114;11.694;2022-07-29T05:31:44;22.40;57.90
16503;DHT22;53067;48.114;11.694;2022-07-29T05:34:12;22.40;57.90
16503;DHT22;53067;48.114;11.694;2022-07-29T05:36:39;22.40;57.60
16503;DHT22;53067;48.114;11.694;2022-07-29T05:39:07;22.40;57.60
16503;DHT22;53067;48.114;11.694;2022-07-29T05:41:34;22.40;57.40
16503;DHT22;53067;48.114;11.694;2022-07-29T05:44:02;22.40;57.60
16503;DHT22;53067;48.114;11.694;2022-07-29T05:46:30;22.40;57.60
16503;DHT22;53067;48.114;11.694;2022-07-29T05:48:57;22.40;57.30
16503;DHT22;53067;48.114;11.694;2022-07-29T05:51:25;22.40;57.30
16503;DHT22;53067;48.114;11.694;2022-07-29T05:53:52;22.40;57.40
16503;DHT22;53067;48.114;11.694;2022-07-29T05:56:20;22.30;57.40
16503;DHT22;53067;48.114;11.694;2022-07-29T05:58:47;22.40;57.40
16503;DHT22;53067;48.114;11.694;2022-07-29T06:01:15;22.30;57.40
16503;DHT22;53067;48.114;11.694;2022-07-29T06:03:42;22.30;57.30
16503;DHT22;53067;48.114;11.694;2022-07-29T06:06:10;22.30;57.20
16503;DHT22;53067;48.114;11.694;2022-07-29T06:08:38;22.30;57.40
16503;DHT22;53067;48.114;11.694;2022-07-29T06:11:07;22.30;57.30
16503;DHT22;53067;48.114;11.694;2022-07-29T06:13:36;22.30;57.50
16503;DHT22;53067;48.114;11.694;2022-07-29T06:16:04;22.30;57.60
16503;DHT22;53067;48.114;11.694;2022-07-29T06:18:31;22.40;57.80
16503;DHT22;53067;48.114;11.694;2022-07-29T06:20:59;22.40;57.60
16503;DHT22;53067;48.114;11.694;2022-07-29T06:23:26;22.40;57.60
16503;DHT22;53067;48.114;11.694;2022-07-29T06:25:54;22.40;57.60
16503;DHT22;53067;48.114;11.694;2022-07-29T06:28:21;22.50;57.70
16503;DHT22;53067;48.114;11.694;2022-07-29T06:30:49;22.50;57.40
16503;DHT22;53067;48.114;11.694;2022-07-29T06:33:18;22.50;57.20
16503;DHT22;53067;48.114;11.694;2022-07-29T06:35:45;22.60;57.10
16503;DHT22;53067;48.114;11.694;2022-07-29T06:38:13;22.60;57.10
16503;DHT22;53067;48.114;11.694;2022-07-29T06:40:42;22.70;56.80
16503;DHT22;53067;48.114;11.694;2022-07-29T06:43:33;22.70;56.20
16503;DHT22;53067;48.114;11.694;2022-07-29T06:46:05;22.70;55.80
16503;DHT22;53067;48.114;11.694;2022-07-29T06:48:34;22.80;55.90
16503;DHT22;53067;48.114;11.694;2022-07-29T06:51:04;22.90;55.80
16503;DHT22;53067;48.114;11.694;2022-07-29T06:53:33;22.90;55.90
16503;DHT22;53067;48.114;11.694;2022-07-29T06:56:03;23.00;55.50
16503;DHT22;53067;48.114;11.694;2022-07-29T06:58:31;23.00;55.10
16503;DHT22;53067;48.114;11.694;2022-07-29T07:01:02;23.10;55.10
16503;DHT22;53067;48.114;11.694;2022-07-29T07:03:30;23.10;55.10
16503;DHT22;53067;48.114;11.694;2022-07-29T07:05:58;23.10;55.10
16503;DHT22;53067;48.114;11.694;2022-07-29T07:08:25;23.10;55.10
16503;DHT22;53067;48.114;11.694;2022-07-29T07:10:53;23.20;55.20
16503;DHT22;53067;48.114;11.694;2022-07-29T07:13:21;23.30;55.20
16503;DHT22;53067;48.114;11.694;2022-07-29T07:15:49;23.30;55.20
16503;DHT22;53067;48.114;11.694;2022-07-29T07:18:18;23.30;55.00
16503;DHT22;53067;48.114;11.694;2022-07-29T07:20:45;23.40;54.80
16503;DHT22;53067;48.114;11.694;2022-07-29T07:23:14;23.50;54.80
16503;DHT22;53067;48.114;11.694;2022-07-29T07:25:41;23.50;54.20
16503;DHT22;53067;48.114;11.694;2022-07-29T07:28:09;23.60;54.40
16503;DHT22;53067;48.114;11.694;2022-07-29T07:30:36;23.70;54.00
16503;DHT22;53067;48.114;11.694;2022-07-29T07:33:04;23.80;53.20
16503;DHT22;53067;48.114;11.694;2022-07-29T07:35:32;23.90;52.80
16503;DHT22;53067;48.114;11.694;2022-07-29T07:37:59;24.00;51.80
16503;DHT22;53067;48.114;11.694;2022-07-29T07:40:27;24.10;51.80
16503;DHT22;53067;48.114;11.694;2022-07-29T07:42:54;24.10;51.80
16503;DHT22;53067;48.114;11.694;2022-07-29T07:45:22;24.20;51.10
16503;DHT22;53067;48.114;11.694;2022-07-29T07:47:50;24.20;51.20
16503;DHT22;53067;48.114;11.694;2022-07-29T07:50:17;24.30;50.90
16503;DHT22;53067;48.114;11.694;2022-07-29T07:52:50;24.30;50.80
16503;DHT22;53067;48.114;11.694;2022-07-29T07:55:18;24.40;50.90
16503;DHT22;53067;48.114;11.694;2022-07-29T07:57:46;24.50;50.10
16503;DHT22;53067;48.114;11.694;2022-07-29T08:00:14;24.60;49.20
16503;DHT22;53067;48.114;11.694;2022-07-29T08:02:43;24.60;49.30
16503;DHT22;53067;48.114;11.694;2022-07-29T08:05:12;24.70;49.00
16503;DHT22;53067;48.114;11.694;2022-07-29T08:07:41;24.80;49.00
16503;DHT22;53067;48.114;11.694;2022-07-29T08:10:09;24.90;49.00
16503;DHT22;53067;48.114;11.694;2022-07-29T08:12:36;25.10;48.90
16503;DHT22;53067;48.114;11.694;2022-07-29T08:15:05;25.10;48.70
16503;DHT22;53067;48.114;11.694;2022-07-29T08:17:34;25.20;47.80
16503;DHT22;53067;48.114;11.694;2022-07-29T08:20:02;25.20;46.70
16503;DHT22;53067;48.114;11.694;2022-07-29T08:22:29;25.20;47.10
16503;DHT22;53067;48.114;11.694;2022-07-29T08:24:57;25.20;46.80
16503;DHT22;53067;48.114;11.694;2022-07-29T08:27:24;25.30;47.40
16503;DHT22;53067;48.114;11.694;2022-07-29T08:29:54;25.40;46.90
16503;DHT22;53067;48.114;11.694;2022-07-29T08:32:22;25.40;47.00
16503;DHT22;53067;48.114;11.694;2022-07-29T08:34:49;25.50;47.40
16503;DHT22;53067;48.114;11.694;2022-07-29T08:37:17;25.60;47.00
16503;DHT22;53067;48.114;11.694;2022-07-29T08:39:44;25.70;46.40
16503;DHT22;53067;48.114;11.694;2022-07-29T08:42:12;25.70;46.40
16503;DHT22;53067;48.114;11.694;2022-07-29T08:44:40;25.70;46.00
16503;DHT22;53067;48.114;11.694;2022-07-29T08:47:08;25.80;45.60
16503;DHT22;53067;48.114;11.694;2022-07-29T08:49:35;25.80;45.40
16503;DHT22;53067;48.114;11.694;2022-07-29T08:52:03;25.80;45.40
16503;DHT22;53067;48.114;11.694;2022-07-29T08:54:31;25.90;45.60
16503;DHT22;53067;48.114;11.694;2022-07-29T08:57:00;26.00;45.70
16503;DHT22;53067;48.114;11.694;2022-07-29T08:59:29;26.20;45.90
16503;DHT22;53067;48.114;11.694;2022-07-29T09:01:58;26.40;44.90
16503;DHT22;53067;48.114;11.694;2022-07-29T09:04:29;26.50;44.80
16503;DHT22;53067;48.114;11.694;2022-07-29T09:06:59;26.50;44.80
16503;DHT22;53067;48.114;11.694;2022-07-29T09:09:27;26.70;45.30
16503;DHT22;53067;48.114;11.694;2022-07-29T09:11:55;26.80;44.60
16503;DHT22;53067;48.114;11.694;2022-07-29T09:14:23;26.70;44.20
16503;DHT22;53067;48.114;11.694;2022-07-29T09:16:53;26.70;44.60
16503;DHT22;53067;48.114;11.694;2022-07-29T09:19:27;26.70;44.50
16503;DHT22;53067;48.114;11.694;2022-07-29T09:21:56;26.70;44.70
16503;DHT22;53067;48.114;11.694;2022-07-29T09:24:29;26.80;44.90
16503;DHT22;53067;48.114;11.694;2022-07-29T09:26:54;26.80;44.30
16503;DHT22;53067;48.114;11.694;2022-07-29T09:29:24;26.80;44.60
16503;DHT22;53067;48.114;11.694;2022-07-29T09:31:52;26.80;44.70
16503;DHT22;53067;48.114;11.694;2022-07-29T09:34:23;26.80;44.80
16503;DHT22;53067;48.114;11.694;2022-07-29T09:36:53;26.90;44.30
16503;DHT22;53067;48.114;11.694;2022-07-29T09:39:28;26.90;45.40
16503;DHT22;53067;48.114;11.694;2022-07-29T09:41:59;26.90;44.20
16503;DHT22;53067;48.114;11.694;2022-07-29T09:44:27;27.00;44.00
16503;DHT22;53067;48.114;11.694;2022-07-29T09:47:01;27.10;44.20
16503;DHT22;53067;48.114;11.694;2022-07-29T09:49:54;27.30;44.50
16503;DHT22;53067;48.114;11.694;2022-07-29T09:52:28;27.40;44.00
16503;DHT22;53067;48.114;11.694;2022-07-29T09:55:07;27.40;44.40
16503;DHT22;53067;48.114;11.694;2022-07-29T09:57:34;27.40;43.90
16503;DHT22;53067;48.114;11.694;2022-07-29T10:00:05;27.50;44.00
16503;DHT22;53067;48.114;11.694;2022-07-29T10:02:34;27.60;43.60
16503;DHT22;53067;48.114;11.694;2022-07-29T10:05:04;27.60;43.70
16503;DHT22;53067;48.114;11.694;2022-07-29T10:07:51;27.60;43.40
16503;DHT22;53067;48.114;11.694;2022-07-29T10:10:26;27.50;44.50
16503;DHT22;53067;48.114;11.694;2022-07-29T10:12:56;27.50;44.00
16503;DHT22;53067;48.114;11.694;2022-07-29T10:15:27;27.60;44.00
16503;DHT22;53067;48.114;11.694;2022-07-29T10:17:56;27.60;44.20
16503;DHT22;53067;48.114;11.694;2022-07-29T10:20:24;27.70;44.30
16503;DHT22;53067;48.114;11.694;2022-07-29T10:22:52;27.70;44.10
16503;DHT22;53067;48.114;11.694;2022-07-29T10:25:21;27.80;44.50
16503;DHT22;53067;48.114;11.694;2022-07-29T10:27:49;27.70;44.20
16503;DHT22;53067;48.114;11.694;2022-07-29T10:30:21;27.70;44.40
16503;DHT22;53067;48.114;11.694;2022-07-29T10:32:58;27.70;44.20
16503;DHT22;53067;48.114;11.694;2022-07-29T10:38:30;27.50;44.50
16503;DHT22;53067;48.114;11.694;2022-07-29T10:41:18;27.40;45.00
16503;DHT22;53067;48.114;11.694;2022-07-29T10:43:59;27.30;45.30
16503;DHT22;53067;48.114;11.694;2022-07-29T10:46:25;27.30;45.30
16503;DHT22;53067;48.114;11.694;2022-07-29T10:49:13;27.20;45.50
16503;DHT22;53067;48.114;11.694;2022-07-29T10:54:40;27.00;45.70
16503;DHT22;53067;48.114;11.694;2022-07-29T11:07:38;27.00;46.00
16503;DHT22;53067;48.114;11.694;2022-07-29T11:15:15;27.50;45.90
16503;DHT22;53067;48.114;11.694;2022-07-29T11:23:27;28.20;44.20
16503;DHT22;53067;48.114;11.694;2022-07-29T11:29:03;28.40;42.80
16503;DHT22;53067;48.114;11.694;2022-07-29T11:31:42;28.50;42.40
16503;DHT22;53067;48.114;11.694;2022-07-29T11:39:45;28.80;42.20
16503;DHT22;53067;48.114;11.694;2022-07-29T11:45:13;29.10;40.90
16503;DHT22;53067;48.114;11.694;2022-07-29T11:50:17;29.30;40.00
16503;DHT22;53067;48.114;11.694;2022-07-29T11:52:46;29.30;39.20
16503;DHT22;53067;48.114;11.694;2022-07-29T11:55:17;29.30;40.60
16503;DHT22;53067;48.114;11.694;2022-07-29T11:57:49;29.50;40.00
16503;DHT22;53067;48.114;11.694;2022-07-29T12:00:31;29.60;39.00
16503;DHT22;53067;48.114;11.694;2022-07-29T12:03:01;29.50;39.00
16503;DHT22;53067;48.114;11.694;2022-07-29T12:05:37;29.60;39.90
16503;DHT22;53067;48.114;11.694;2022-07-29T12:08:12;29.70;39.20
16503;DHT22;53067;48.114;11.694;2022-07-29T12:10:38;29.80;38.40
16503;DHT22;53067;48.114;11.694;2022-07-29T12:13:06;29.80;38.40
16503;DHT22;53067;48.114;11.694;2022-07-29T12:15:33;29.90;37.10
16503;DHT22;53067;48.114;11.694;2022-07-29T12:18:12;29.90;37.80
16503;DHT22;53067;48.114;11.694;2022-07-29T12:20:40;29.90;37.90
16503;DHT22;53067;48.114;11.694;2022-07-29T12:23:10;29.90;38.70
16503;DHT22;53067;48.114;11.694;2022-07-29T12:25:40;29.90;37.40
16503;DHT22;53067;48.114;11.694;2022-07-29T12:28:10;29.90;37.60
16503;DHT22;53067;48.114;11.694;2022-07-29T12:30:44;29.80;37.90
16503;DHT22;53067;48.114;11.694;2022-07-29T12:33:14;29.90;37.90
16503;DHT22;53067;48.114;11.694;2022-07-29T12:35:44;29.90;37.10
16503;DHT22;53067;48.114;11.694;2022-07-29T12:38:13;29.80;38.10
16503;DHT22;53067;48.114;11.694;2022-07-29T12:40:42;30.00;38.30
16503;DHT22;53067;48.114;11.694;2022-07-29T12:43:13;30.20;37.60
16503;DHT22;53067;48.114;11.694;2022-07-29T12:45:46;30.20;37.30
16503;DHT22;53067;48.114;11.694;2022-07-29T12:48:14;30.20;37.10
16503;DHT22;53067;48.114;11.694;2022-07-29T12:51:00;30.20;37.90
16503;DHT22;53067;48.114;11.694;2022-07-29T12:53:28;30.40;37.50
16503;DHT22;53067;48.114;11.694;2022-07-29T12:55:57;30.40;37.50
16503;DHT22;53067;48.114;11.694;2022-07-29T12:58:35;30.50;37.70
16503;DHT22;53067;48.114;11.694;2022-07-29T13:01:06;30.70;37.50
16503;DHT22;53067;48.114;11.694;2022-07-29T13:03:54;31.00;37.30
16503;DHT22;53067;48.114;11.694;2022-07-29T13:06:32;31.10;36.60
16503;DHT22;53067;48.114;11.694;2022-07-29T13:09:03;31.10;35.70
16503;DHT22;53067;48.114;11.694;2022-07-29T13:11:35;30.90;36.20
16503;DHT22;53067;48.114;11.694;2022-07-29T13:14:03;30.60;34.80
16503;DHT22;53067;48.114;11.694;2022-07-29T13:16:31;30.20;35.30
16503;DHT22;53067;48.114;11.694;2022-07-29T13:19:10;30.10;36.50
16503;DHT22;53067;48.114;11.694;2022-07-29T13:21:39;30.00;37.70
16503;DHT22;53067;48.114;11.694;2022-07-29T13:24:07;30.10;37.70
16503;DHT22;53067;48.114;11.694;2022-07-29T13:26:36;29.90;37.80
16503;DHT22;53067;48.114;11.694;2022-07-29T13:29:04;29.70;38.20
16503;DHT22;53067;48.114;11.694;2022-07-29T13:31:31;29.60;38.70
16503;DHT22;53067;48.114;11.694;2022-07-29T13:33:59;29.60;38.60
16503;DHT22;53067;48.114;11.694;2022-07-29T13:36:26;29.60;39.00
16503;DHT22;53067;48.114;11.694;2022-07-29T13:38:54;29.60;38.70
16503;DHT22;53067;48.114;11.694;2022-07-29T13:41:22;29.50;38.70
16503;DHT22;53067;48.114;11.694;2022-07-29T13:43:49;29.30;38.70
16503;DHT22;53067;48.114;11.694;2022-07-29T13:46:17;29.20;39.30
16503;DHT22;53067;48.114;11.694;2022-07-29T13:48:44;29.10;39.20
16503;DHT22;53067;48.114;11.694;2022-07-29T13:51:12;29.00;40.00
16503;DHT22;53067;48.114;11.694;2022-07-29T13:53:39;29.00;39.50
16503;DHT22;53067;48.114;11.694;2022-07-29T13:56:07;28.90;39.90
16503;DHT22;53067;48.114;11.694;2022-07-29T13:58:34;28.80;40.10
16503;DHT22;53067;48.114;11.694;2022-07-29T14:01:02;28.70;40.40
16503;DHT22;53067;48.114;11.694;2022-07-29T14:03:30;28.60;40.90
16503;DHT22;53067;48.114;11.694;2022-07-29T14:05:57;28.50;41.20
16503;DHT22;53067;48.114;11.694;2022-07-29T14:08:26;28.50;41.60
16503;DHT22;53067;48.114;11.694;2022-07-29T14:10:53;28.50;41.80
16503;DHT22;53067;48.114;11.694;2022-07-29T14:13:21;28.40;41.50
16503;DHT22;53067;48.114;11.694;2022-07-29T14:15:48;28.40;42.20
16503;DHT22;53067;48.114;11.694;2022-07-29T14:18:16;28.30;42.50
16503;DHT22;53067;48.114;11.694;2022-07-29T14:20:43;28.30;42.00
16503;DHT22;53067;48.114;11.694;2022-07-29T14:23:11;28.20;42.50
16503;DHT22;53067;48.114;11.694;2022-07-29T14:25:38;28.10;42.50
16503;DHT22;53067;48.114;11.694;2022-07-29T14:28:06;28.20;42.40
16503;DHT22;53067;48.114;11.694;2022-07-29T14:30:33;28.20;42.50
16503;DHT22;53067;48.114;11.694;2022-07-29T14:33:01;28.40;41.70
16503;DHT22;53067;48.114;11.694;2022-07-29T14:35:29;28.40;41.80
16503;DHT22;53067;48.114;11.694;2022-07-29T14:37:57;28.40;42.20
16503;DHT22;53067;48.114;11.694;2022-07-29T14:40:24;28.40;42.10
16503;DHT22;53067;48.114;11.694;2022-07-29T14:42:52;28.30;42.00
16503;DHT22;53067;48.114;11.694;2022-07-29T14:45:19;28.30;42.00
16503;DHT22;53067;48.114;11.694;2022-07-29T14:47:47;28.30;41.60
16503;DHT22;53067;48.114;11.694;2022-07-29T14:50:16;28.30;41.00
16503;DHT22;53067;48.114;11.694;2022-07-29T14:52:45;28.30;41.30
16503;DHT22;53067;48.114;11.694;2022-07-29T14:55:12;28.30;41.80
16503;DHT22;53067;48.114;11.694;2022-07-29T14:57:40;28.30;41.80
16503;DHT22;53067;48.114;11.694;2022-07-29T15:00:08;28.30;41.20
16503;DHT22;53067;48.114;11.694;2022-07-29T15:02:37;28.20;41.20
16503;DHT22;53067;48.114;11.694;2022-07-29T15:05:05;28.10;42.00
16503;DHT22;53067;48.114;11.694;2022-07-29T15:07:32;28.10;41.20
16503;DHT22;53067;48.114;11.694;2022-07-29T15:10:00;28.10;41.50
16503;DHT22;53067;48.114;11.694;2022-07-29T15:12:28;28.20;39.80
16503;DHT22;53067;48.114;11.694;2022-07-29T15:14:56;28.10;39.80
16503;DHT22;53067;48.114;11.694;2022-07-29T15:17:23;28.10;39.90
16503;DHT22;53067;48.114;11.694;2022-07-29T15:19:51;28.10;40.60
16503;DHT22;53067;48.114;11.694;2022-07-29T15:22:18;28.00;40.90
16503;DHT22;53067;48.114;11.694;2022-07-29T15:24:46;28.00;40.90
16503;DHT22;53067;48.114;11.694;2022-07-29T15:27:14;28.00;40.50
16503;DHT22;53067;48.114;11.694;2022-07-29T15:29:42;27.90;40.80
16503;DHT22;53067;48.114;11.694;2022-07-29T15:32:11;27.80;41.30
16503;DHT22;53067;48.114;11.694;2022-07-29T15:34:38;27.70;41.10
16503;DHT22;53067;48.114;11.694;2022-07-29T15:37:06;27.50;41.20
16503;DHT22;53067;48.114;11.694;2022-07-29T15:39:34;27.50;41.00
16503;DHT22;53067;48.114;11.694;2022-07-29T15:42:02;27.40;41.80
16503;DHT22;53067;48.114;11.694;2022-07-29T15:44:31;27.40;42.20
16503;DHT22;53067;48.114;11.694;2022-07-29T15:46:58;27.40;42.50
16503;DHT22;53067;48.114;11.694;2022-07-29T15:49:33;27.30;42.60
16503;DHT22;53067;48.114;11.694;2022-07-29T15:52:00;27.40;43.00
16503;DHT22;53067;48.114;11.694;2022-07-29T15:54:29;27.30;43.30
16503;DHT22;53067;48.114;11.694;2022-07-29T15:56:57;27.20;43.70
16503;DHT22;53067;48.114;11.694;2022-07-29T15:59:25;27.10;44.00
16503;DHT22;53067;48.114;11.694;2022-07-29T16:01:52;27.00;44.40
16503;DHT22;53067;48.114;11.694;2022-07-29T16:04:20;26.90;44.90
16503;DHT22;53067;48.114;11.694;2022-07-29T16:06:49;26.80;45.40
16503;DHT22;53067;48.114;11.694;2022-07-29T16:09:20;26.70;45.90
16503;DHT22;53067;48.114;11.694;2022-07-29T16:11:47;26.70;46.20
16503;DHT22;53067;48.114;11.694;2022-07-29T16:14:17;26.60;46.70
16503;DHT22;53067;48.114;11.694;2022-07-29T16:16:45;26.50;46.80
16503;DHT22;53067;48.114;11.694;2022-07-29T16:19:13;26.50;47.40
16503;DHT22;53067;48.114;11.694;2022-07-29T16:21:40;26.40;47.80
16503;DHT22;53067;48.114;11.694;2022-07-29T16:24:08;26.30;48.10
16503;DHT22;53067;48.114;11.694;2022-07-29T16:26:35;26.30;48.40
16503;DHT22;53067;48.114;11.694;2022-07-29T16:29:04;26.20;48.50
16503;DHT22;53067;48.114;11.694;2022-07-29T16:31:31;26.20;48.70
16503;DHT22;53067;48.114;11.694;2022-07-29T16:34:00;26.20;48.70
16503;DHT22;53067;48.114;11.694;2022-07-29T16:36:28;26.10;48.60
16503;DHT22;53067;48.114;11.694;2022-07-29T16:38:55;26.00;48.90
16503;DHT22;53067;48.114;11.694;2022-07-29T16:41:23;26.00;49.20
16503;DHT22;53067;48.114;11.694;2022-07-29T16:43:50;26.00;49.50